Home   Weather   Russia   Khanty-Mansiysk   Past weeks
Flag for Russia

Past Weather in Khanty-Mansiysk, Russia — Yesterday and Last 2 Weeks

Currently: 70 °F. Passing clouds. (Weather station: Hanty-Mansijsk, Russia). See more current weather

Past Weather in Khanty-Mansiysk — Graph

°F

Khanty-Mansiysk Temperature Yesterday

Maximum temperature yesterday: 70 °F (at 2:30 pm)
Minimum temperature yesterday: 61 °F (at 3:00 am)
Average temperature yesterday: 63 °F

High & Low Weather Summary for the Past Weeks

 TemperatureHumidityPressure
High84 °F (Jul 23, 12:30 pm)100% (Jul 20, 2:00 am)29.86 "Hg (Jul 20, 2:00 am)
Low45 °F (Jul 29, 4:00 am)42% (Jul 22, 4:30 pm)29.30 "Hg (Jul 23, 9:30 am)
Average62 °F79%29.66 "Hg
* Reported Jul 19 4:00 pm — Aug 3 4:00 pm, Khanty-Mansiysk. Weather by CustomWeather, © 2021

Note: Actual official high and low records may vary slightly from our data, if they occured in-between our weather recording intervals... More about our weather records

Khanty-Mansiysk Weather History for the Previous 24 Hours

Scroll right to see more
 ConditionsComfort  
Time TempWeatherWind HumidityBarometerVisibility
4:00 pm
Tue, Aug 3
70 °FPassing clouds.3 mph64%29.83 "HgN/A
3:30 pm70 °FSunny.3 mph64%29.83 "Hg10 mi
3:00 pm68 °FPassing clouds.3 mph64%29.83 "HgN/A
2:30 pm68 °FPassing clouds.3 mph64%29.83 "HgN/A
2:00 pm68 °FPassing clouds.3 mph69%29.83 "HgN/A
1:30 pm68 °FScattered clouds.3 mph69%29.83 "HgN/A
1:00 pm66 °FScattered clouds.3 mph73%29.83 "HgN/A
12:30 pm66 °FScattered clouds.6 mph78%29.80 "HgN/A
12:00 pm64 °FScattered clouds.3 mph78%29.80 "HgN/A
11:30 am63 °FPartly sunny.6 mph88%29.80 "HgN/A
11:00 am61 °FPartly sunny.3 mph94%29.80 "HgN/A
10:30 am61 °FPartly sunny.3 mph94%29.80 "HgN/A
10:00 am61 °FPartly sunny.3 mph94%29.80 "HgN/A
9:30 am61 °FPartly sunny.3 mph94%29.80 "HgN/A
9:00 am61 °FPartly sunny.3 mph94%29.77 "HgN/A
8:30 am59 °FLight rain. Partly sunny.3 mph100%29.77 "HgN/A
8:00 am59 °FPartly sunny.1 mph100%29.77 "HgN/A
7:30 am59 °FPartly sunny.3 mph100%29.77 "HgN/A
7:00 am59 °FPartly sunny.3 mph100%29.77 "HgN/A
6:30 am57 °FScattered clouds.1 mph100%29.77 "HgN/A
6:00 am57 °FSunny.1 mph100%29.77 "Hg10 mi
5:30 am57 °FSunny.1 mph100%29.77 "Hg10 mi
5:00 am57 °FSunny.1 mph100%29.77 "Hg10 mi
4:30 am59 °FScattered clouds.1 mph100%29.74 "HgN/A
4:00 am59 °FLight rain. Clear.No wind100%29.74 "Hg4 mi
3:30 am59 °FClear.No wind100%29.74 "Hg10 mi
3:00 am59 °FPassing clouds.No wind100%29.74 "HgN/A
2:30 am59 °FPassing clouds.No wind100%29.74 "HgN/A
2:00 am59 °FFog.No wind100%29.74 "HgN/A
1:30 am59 °FFog.1 mph100%29.74 "Hg4 mi
1:00 am59 °FFog.1 mph100%29.71 "Hg6 mi
12:30 am61 °FClear.1 mph100%29.71 "Hg10 mi
12:00 am59 °FClear.1 mph100%29.71 "Hg10 mi
11:30 pm
Mon, Aug 2
61 °FClear.1 mph100%29.71 "Hg10 mi
11:00 pm61 °FClear.1 mph100%29.71 "Hg10 mi
10:30 pm61 °FClear.3 mph100%29.71 "Hg10 mi
10:00 pm61 °FClear.1 mph100%29.71 "Hg10 mi
9:30 pm61 °FClear.3 mph100%29.71 "Hg10 mi
9:00 pm63 °FClear.3 mph100%29.71 "Hg10 mi
8:30 pm63 °FSunny.3 mph100%29.71 "Hg10 mi
8:00 pm63 °FPassing clouds.3 mph100%29.71 "HgN/A
7:30 pm63 °FPassing clouds.3 mph100%29.71 "HgN/A
7:00 pm63 °FPassing clouds.3 mph100%29.71 "HgN/A
6:30 pm63 °FPassing clouds.3 mph100%29.71 "HgN/A
6:00 pm61 °FSprinkles. Passing clouds.3 mph100%29.71 "HgN/A
5:30 pm61 °FSprinkles. Scattered clouds.3 mph100%29.71 "HgN/A
5:00 pm61 °FSprinkles. Scattered clouds.6 mph100%29.71 "HgN/A
Weather by CustomWeather, © 2021

See weather overview